createdAt,value
2023-05-19T00:01:37.706Z,82.65
2023-05-19T00:04:27.634Z,82.40
2023-05-19T00:07:21.710Z,82.36
2023-05-19T00:10:11.109Z,82.23
2023-05-19T00:12:59.925Z,82.22
2023-05-19T00:15:48.737Z,82.53
2023-05-19T00:18:37.256Z,82.80
2023-05-19T00:21:26.457Z,82.81
2023-05-19T00:24:14.925Z,82.85
2023-05-19T00:27:03.628Z,82.89
2023-05-19T00:29:52.229Z,82.94
2023-05-19T00:32:41.041Z,83.02
2023-05-19T00:35:29.781Z,83.26
2023-05-19T00:38:19.819Z,83.33
2023-05-19T00:41:08.688Z,83.38
2023-05-19T00:43:57.668Z,83.56
2023-05-19T00:46:46.530Z,83.63
2023-05-19T00:49:36.119Z,83.66
2023-05-19T00:52:24.668Z,83.42
2023-05-19T00:55:14.678Z,83.58
2023-05-19T00:58:05.502Z,83.66
2023-05-19T01:00:56.115Z,83.91
2023-05-19T01:03:45.435Z,84.06
2023-05-19T01:06:34.681Z,83.81
2023-05-19T01:09:23.384Z,83.93
2023-05-19T01:12:11.959Z,83.67
2023-05-19T01:15:01.455Z,83.77
2023-05-19T01:18:01.407Z,83.85
2023-05-19T01:21:06.952Z,83.92
2023-05-19T01:24:22.932Z,83.93
2023-05-19T01:27:48.428Z,83.90
2023-05-19T01:30:40.732Z,84.26
2023-05-19T01:33:31.226Z,84.43
2023-05-19T01:36:22.531Z,84.32
2023-05-19T01:39:11.947Z,84.25
2023-05-19T01:42:01.759Z,84.30
2023-05-19T01:44:51.403Z,84.37
2023-05-19T01:47:42.892Z,84.77
2023-05-19T01:50:32.831Z,85.06
2023-05-19T01:53:21.718Z,85.01
2023-05-19T01:56:10.584Z,85.15
2023-05-19T01:59:09.714Z,84.97
2023-05-19T02:02:03.214Z,85.10
2023-05-19T02:05:00.469Z,85.25
2023-05-19T02:07:59.165Z,85.39
2023-05-19T02:10:54.056Z,85.58
2023-05-19T02:13:46.680Z,85.72
2023-05-19T02:16:37.270Z,85.81
2023-05-19T02:19:28.220Z,85.84
2023-05-19T02:22:17.127Z,86.27
2023-05-19T02:25:06.045Z,86.65
2023-05-19T02:27:54.759Z,86.55
2023-05-19T02:30:43.328Z,86.52
2023-05-19T02:33:31.830Z,86.38
2023-05-19T02:36:20.387Z,86.10
2023-05-19T02:39:09.977Z,86.06
2023-05-19T02:41:58.554Z,86.21
2023-05-19T02:44:48.683Z,86.24
2023-05-19T02:47:38.525Z,86.24
2023-05-19T02:50:28.041Z,86.65
2023-05-19T02:53:16.702Z,86.85
2023-05-19T02:56:05.882Z,87.11
2023-05-19T02:58:54.420Z,87.09
2023-05-19T03:01:43.046Z,86.92
2023-05-19T03:04:31.773Z,86.90
2023-05-19T03:07:25.062Z,86.94
2023-05-19T03:10:13.755Z,86.99
2023-05-19T03:13:02.276Z,87.17
2023-05-19T03:15:51.253Z,87.24
2023-05-19T03:18:41.776Z,87.33
2023-05-19T03:21:32.065Z,87.49
2023-05-19T03:24:20.993Z,87.57
2023-05-19T03:27:09.758Z,87.71
2023-05-19T03:29:58.917Z,87.78
2023-05-19T03:32:47.853Z,87.97
2023-05-19T03:35:37.044Z,88.02
2023-05-19T03:38:26.548Z,87.88
2023-05-19T03:41:18.614Z,87.97
2023-05-19T03:44:07.338Z,88.25
2023-05-19T03:46:56.006Z,88.17
2023-05-19T03:50:02.810Z,88.50
2023-05-19T03:53:12.271Z,88.43
2023-05-19T03:56:02.616Z,88.31
2023-05-19T03:58:51.144Z,88.35
2023-05-19T04:01:40.178Z,88.54
2023-05-19T04:04:28.909Z,88.70
2023-05-19T04:07:17.436Z,88.64
2023-05-19T04:10:06.730Z,88.58
2023-05-19T04:12:55.364Z,88.85
2023-05-19T04:15:43.996Z,88.69
2023-05-19T04:18:32.609Z,88.70
2023-05-19T04:21:22.442Z,88.86
2023-05-19T04:24:11.038Z,88.94
2023-05-19T04:27:02.549Z,89.06
2023-05-19T04:29:51.204Z,89.03
2023-05-19T04:32:41.437Z,89.11
2023-05-19T04:35:30.166Z,89.20
2023-05-19T04:38:20.275Z,89.40
2023-05-19T04:41:12.316Z,89.05
2023-05-19T04:44:01.828Z,89.31
2023-05-19T04:46:54.372Z,88.85
2023-05-19T04:49:44.589Z,88.93
2023-05-19T04:52:33.481Z,88.81
2023-05-19T04:55:23.124Z,88.73
2023-05-19T04:58:12.062Z,88.69
2023-05-19T05:01:00.792Z,88.56
2023-05-19T05:03:50.073Z,88.70
2023-05-19T05:06:38.775Z,88.75
2023-05-19T05:09:28.102Z,88.65
2023-05-19T05:12:19.111Z,88.42
2023-05-19T05:15:09.094Z,88.34
2023-05-19T05:17:58.638Z,88.25
2023-05-19T05:20:48.392Z,88.37
2023-05-19T05:23:39.369Z,88.27
2023-05-19T05:26:29.958Z,88.13
2023-05-19T05:29:18.563Z,88.27
2023-05-19T05:32:08.213Z,87.79
2023-05-19T05:34:57.084Z,87.72
2023-05-19T05:37:46.723Z,87.66
2023-05-19T05:40:35.337Z,87.55
2023-05-19T05:43:24.783Z,86.76
2023-05-19T05:46:17.554Z,87.01
2023-05-19T05:49:06.608Z,87.28
2023-05-19T05:52:05.480Z,87.11
2023-05-19T05:54:57.413Z,86.73
2023-05-19T05:57:46.378Z,86.74
2023-05-19T06:00:35.157Z,86.74
2023-05-19T06:03:24.645Z,86.18
2023-05-19T06:06:14.285Z,86.26
2023-05-19T06:09:03.137Z,86.54
2023-05-19T06:11:52.136Z,86.56
2023-05-19T06:14:40.920Z,86.18
2023-05-19T06:17:41.128Z,86.00
2023-05-19T06:20:29.923Z,85.88
2023-05-19T06:23:19.672Z,85.84
2023-05-19T06:26:08.295Z,85.50
2023-05-19T06:28:57.114Z,85.61
2023-05-19T06:31:47.722Z,85.25
2023-05-19T06:34:40.453Z,85.46
2023-05-19T06:37:29.255Z,85.67
2023-05-19T06:40:18.804Z,85.88
2023-05-19T06:43:07.612Z,85.64
2023-05-19T06:46:13.726Z,85.52
2023-05-19T06:49:02.527Z,85.49
2023-05-19T06:51:54.351Z,85.11
2023-05-19T06:54:43.035Z,85.28
2023-05-19T06:57:31.885Z,84.87
2023-05-19T07:00:22.119Z,84.79
2023-05-19T07:03:13.216Z,85.10
2023-05-19T07:06:02.194Z,85.04
2023-05-19T07:08:50.900Z,84.94
2023-05-19T07:11:40.433Z,84.99
2023-05-19T07:14:29.643Z,84.87
2023-05-19T07:17:18.323Z,85.30
2023-05-19T07:20:10.104Z,85.14
2023-05-19T07:22:58.949Z,85.48
2023-05-19T07:25:47.549Z,85.39
2023-05-19T07:28:36.214Z,84.93
2023-05-19T07:31:24.898Z,85.12
2023-05-19T07:34:13.601Z,85.38
2023-05-19T07:37:02.171Z,85.25
2023-05-19T07:39:50.823Z,85.28
2023-05-19T07:42:39.470Z,85.21
2023-05-19T07:45:27.962Z,84.88
2023-05-19T07:48:18.827Z,84.90
2023-05-19T07:51:10.153Z,84.77
2023-05-19T07:53:58.689Z,85.02
2023-05-19T07:56:48.271Z,85.13
2023-05-19T07:59:37.099Z,84.94
2023-05-19T08:02:25.903Z,85.14
2023-05-19T08:05:15.175Z,84.81
2023-05-19T08:08:04.288Z,84.64
2023-05-19T08:10:52.847Z,84.53
2023-05-19T08:13:41.712Z,84.74
2023-05-19T08:16:30.408Z,84.04
2023-05-19T08:19:19.179Z,84.03
2023-05-19T08:22:07.752Z,83.81
2023-05-19T08:24:57.017Z,83.86
2023-05-19T08:27:46.053Z,83.78
2023-05-19T08:30:34.884Z,83.40
2023-05-19T08:33:23.661Z,83.51
2023-05-19T08:36:12.180Z,83.04
2023-05-19T08:39:00.895Z,82.69
2023-05-19T08:41:49.834Z,82.91
2023-05-19T08:44:40.103Z,83.06
2023-05-19T08:47:29.589Z,82.90
2023-05-19T08:50:24.924Z,83.22
2023-05-19T08:53:33.356Z,83.39
2023-05-19T08:56:25.010Z,83.46
2023-05-19T08:59:15.301Z,83.75
2023-05-19T09:02:04.717Z,83.98
2023-05-19T09:04:53.694Z,83.81
2023-05-19T09:07:43.839Z,83.63
2023-05-19T09:10:32.419Z,83.55
2023-05-19T09:13:21.130Z,83.40
2023-05-19T09:16:09.842Z,83.22
2023-05-19T09:18:58.818Z,83.48
2023-05-19T09:21:59.640Z,83.52
2023-05-19T09:24:48.578Z,83.81
2023-05-19T09:27:37.725Z,83.49
2023-05-19T09:30:26.388Z,83.42
2023-05-19T09:33:19.873Z,83.49
2023-05-19T09:36:10.861Z,82.90
2023-05-19T09:38:59.471Z,82.76
2023-05-19T09:41:52.060Z,82.96
2023-05-19T09:44:41.519Z,82.70
2023-05-19T09:47:41.478Z,82.55
2023-05-19T09:50:30.927Z,82.21
2023-05-19T09:53:19.662Z,82.51
2023-05-19T09:56:08.851Z,82.03
2023-05-19T09:58:57.697Z,82.43
2023-05-19T10:01:47.236Z,82.09
2023-05-19T10:04:36.429Z,81.86
2023-05-19T10:07:25.034Z,81.59
2023-05-19T10:10:15.543Z,80.97
2023-05-19T10:13:05.102Z,81.22
2023-05-19T10:15:58.755Z,80.96
2023-05-19T10:18:51.555Z,80.75
2023-05-19T10:21:40.082Z,80.80
2023-05-19T10:24:28.601Z,81.05
2023-05-19T10:27:18.463Z,81.41
2023-05-19T10:30:20.286Z,81.60
2023-05-19T10:33:13.996Z,81.58
2023-05-19T10:36:15.905Z,81.09
2023-05-19T10:39:06.744Z,81.46
2023-05-19T10:42:07.298Z,81.47
2023-05-19T10:45:05.601Z,81.53
2023-05-19T10:47:54.756Z,81.85
2023-05-19T10:50:45.980Z,81.80
2023-05-19T10:53:35.111Z,82.12
2023-05-19T10:56:33.979Z,81.85
2023-05-19T10:59:33.628Z,81.51
2023-05-19T11:02:44.365Z,81.67
2023-05-19T11:05:45.228Z,81.19
2023-05-19T11:08:34.984Z,80.60
2023-05-19T11:11:56.709Z,80.83
2023-05-19T11:14:45.379Z,80.98
2023-05-19T11:17:35.256Z,81.00
2023-05-19T11:20:26.362Z,81.33
2023-05-19T11:23:18.172Z,81.15
2023-05-19T11:26:09.046Z,81.32
2023-05-19T11:28:58.144Z,81.35
2023-05-19T11:31:48.730Z,82.06
2023-05-19T11:34:38.489Z,82.05
2023-05-19T11:37:29.108Z,81.74
2023-05-19T11:40:18.056Z,81.22
2023-05-19T11:43:06.706Z,81.68
2023-05-19T11:45:56.075Z,81.92
2023-05-19T11:48:47.491Z,82.15
2023-05-19T11:51:36.351Z,81.47
2023-05-19T11:54:36.586Z,81.41
2023-05-19T11:57:25.232Z,81.13
2023-05-19T12:00:14.784Z,81.19
2023-05-19T12:03:03.431Z,80.87
2023-05-19T12:05:52.330Z,80.14
2023-05-19T12:08:41.054Z,79.84
2023-05-19T12:11:29.658Z,79.98
2023-05-19T12:14:18.704Z,79.89
2023-05-19T12:17:12.411Z,80.10
2023-05-19T12:20:01.589Z,80.38
2023-05-19T12:22:51.197Z,80.50
2023-05-19T12:25:39.944Z,80.51
2023-05-19T12:28:31.241Z,80.56
2023-05-19T12:31:24.006Z,80.87
2023-05-19T12:34:13.211Z,80.68
2023-05-19T12:37:02.725Z,81.01
2023-05-19T12:39:51.305Z,81.22
2023-05-19T12:42:45.357Z,80.83
2023-05-19T12:45:38.673Z,80.63
2023-05-19T12:48:28.628Z,80.87
2023-05-19T12:51:18.920Z,80.64
2023-05-19T12:54:08.762Z,80.51
2023-05-19T12:56:58.848Z,80.70
2023-05-19T12:59:48.382Z,80.56
2023-05-19T13:02:55.982Z,80.38
2023-05-19T13:05:48.277Z,80.10
2023-05-19T13:08:39.410Z,80.32
2023-05-19T13:11:28.018Z,79.72
2023-05-19T13:14:18.626Z,79.87
2023-05-19T13:17:07.273Z,80.01
2023-05-19T13:19:55.930Z,80.05
2023-05-19T13:22:44.749Z,80.48
2023-05-19T13:25:34.421Z,80.88
2023-05-19T13:28:24.018Z,80.85
2023-05-19T13:31:15.998Z,80.89
2023-05-19T13:34:09.569Z,80.73
2023-05-19T13:36:59.743Z,80.63
2023-05-19T13:39:51.310Z,80.99
2023-05-19T13:42:41.142Z,81.48
2023-05-19T13:45:33.989Z,80.87
2023-05-19T13:48:22.579Z,80.78
2023-05-19T13:51:12.222Z,80.81
2023-05-19T13:54:00.768Z,80.84
2023-05-19T13:56:49.327Z,80.52
2023-05-19T13:59:48.904Z,80.71
2023-05-19T14:02:46.561Z,80.75
2023-05-19T14:05:35.717Z,81.20
2023-05-19T14:08:24.326Z,80.90
2023-05-19T14:11:20.213Z,80.68
2023-05-19T14:14:09.405Z,81.27
2023-05-19T14:16:59.624Z,80.84
2023-05-19T14:19:48.120Z,80.36
2023-05-19T14:22:36.787Z,80.27
2023-05-19T14:25:25.573Z,80.52
2023-05-19T14:28:14.196Z,80.09
2023-05-19T14:31:03.185Z,80.24
2023-05-19T14:33:52.361Z,80.50
2023-05-19T14:36:42.903Z,80.71
2023-05-19T14:39:31.522Z,80.57
2023-05-19T14:42:20.233Z,80.56
2023-05-19T14:45:09.383Z,80.88
2023-05-19T14:47:57.972Z,80.98
2023-05-19T14:50:48.914Z,80.83
2023-05-19T14:53:37.534Z,80.68
2023-05-19T14:56:26.297Z,80.69
2023-05-19T14:59:14.851Z,80.78
2023-05-19T15:02:03.431Z,80.82
2023-05-19T15:04:52.438Z,81.12
2023-05-19T15:07:41.021Z,80.92
2023-05-19T15:10:30.664Z,81.04
2023-05-19T15:13:19.398Z,81.19
2023-05-19T15:16:17.533Z,81.22
2023-05-19T15:19:06.804Z,81.42
2023-05-19T15:21:55.461Z,81.72
2023-05-19T15:24:44.294Z,81.44
2023-05-19T15:27:35.116Z,81.69
2023-05-19T15:30:23.997Z,81.60
2023-05-19T15:33:12.839Z,81.69
2023-05-19T15:36:01.576Z,81.85
2023-05-19T15:38:50.187Z,81.55
2023-05-19T15:41:39.306Z,81.69
2023-05-19T15:44:29.025Z,81.69
2023-05-19T15:47:17.755Z,81.42
2023-05-19T15:50:06.791Z,81.41
2023-05-19T15:52:55.533Z,81.23
2023-05-19T15:55:44.129Z,81.18
2023-05-19T15:58:32.705Z,81.80
2023-05-19T16:01:21.740Z,81.86
2023-05-19T16:04:10.535Z,81.66
2023-05-19T16:06:59.195Z,81.78
2023-05-19T16:09:48.763Z,82.08
2023-05-19T16:12:37.824Z,81.90
2023-05-19T16:15:26.565Z,81.82
2023-05-19T16:18:16.069Z,81.79
2023-05-19T16:21:05.086Z,82.09
2023-05-19T16:23:53.603Z,81.90
2023-05-19T16:26:42.157Z,81.94
2023-05-19T16:29:30.751Z,82.28
2023-05-19T16:32:20.747Z,82.39
2023-05-19T16:35:10.429Z,82.09
2023-05-19T16:37:59.000Z,82.41
2023-05-19T16:40:47.814Z,82.39
2023-05-19T16:43:36.401Z,82.58
2023-05-19T16:46:25.004Z,82.57
2023-05-19T16:52:18.970Z,82.83
2023-05-19T16:55:07.888Z,82.78
2023-05-19T16:57:56.404Z,82.98
2023-05-19T17:00:45.066Z,83.10
2023-05-19T17:03:35.705Z,83.07
2023-05-19T17:06:24.507Z,83.06
2023-05-19T17:09:13.219Z,83.46
2023-05-19T17:12:01.776Z,83.32
2023-05-19T17:14:52.220Z,83.20
2023-05-19T17:17:41.040Z,83.10
2023-05-19T17:20:29.683Z,83.26
2023-05-19T17:23:18.360Z,83.35
2023-05-19T17:26:06.888Z,83.73
2023-05-19T17:28:55.603Z,83.55
2023-05-19T17:31:44.491Z,83.61
2023-05-19T17:34:33.114Z,83.59
2023-05-19T17:37:25.632Z,83.74
2023-05-19T17:40:14.317Z,83.75
2023-05-19T17:43:02.881Z,83.99
2023-05-19T17:45:51.730Z,83.68
2023-05-19T17:48:41.809Z,83.88
2023-05-19T17:51:34.661Z,83.77
2023-05-19T17:54:28.357Z,83.97
2023-05-19T17:57:18.310Z,84.05
2023-05-19T18:00:07.711Z,84.12
2023-05-19T18:02:57.673Z,84.01
2023-05-19T18:05:47.149Z,84.15
2023-05-19T18:08:37.503Z,84.33
2023-05-19T18:11:26.619Z,84.38
2023-05-19T18:14:15.192Z,84.57
2023-05-19T18:17:04.343Z,84.70
2023-05-19T18:19:54.557Z,84.67
2023-05-19T18:22:43.422Z,84.70
2023-05-19T18:25:32.021Z,84.85
2023-05-19T18:28:20.710Z,85.02
2023-05-19T18:31:15.663Z,85.05
2023-05-19T18:34:04.694Z,84.96
2023-05-19T18:36:53.610Z,84.84
2023-05-19T18:39:42.248Z,84.84
2023-05-19T18:42:30.832Z,85.11
2023-05-19T18:45:19.466Z,85.18
2023-05-19T18:48:08.209Z,85.43
2023-05-19T18:50:57.268Z,85.52
2023-05-19T18:53:48.682Z,85.65
2023-05-19T18:56:37.508Z,85.83
2023-05-19T18:59:26.118Z,85.48
2023-05-19T19:02:14.649Z,85.68
2023-05-19T19:05:04.149Z,85.79
2023-05-19T19:07:53.386Z,85.75
2023-05-19T19:10:42.588Z,85.91
2023-05-19T19:13:31.194Z,86.05
2023-05-19T19:16:19.749Z,86.25
2023-05-19T19:19:08.404Z,86.39
2023-05-19T19:21:57.105Z,86.32
2023-05-19T19:24:45.805Z,86.54
2023-05-19T19:27:35.718Z,86.76
2023-05-19T19:30:25.594Z,86.76
2023-05-19T19:33:14.188Z,86.85
2023-05-19T19:36:03.005Z,87.15
2023-05-19T19:38:51.533Z,87.42
2023-05-19T19:41:40.990Z,87.38
2023-05-19T19:44:29.552Z,87.52
2023-05-19T19:47:18.116Z,87.73
2023-05-19T19:50:08.110Z,88.03
2023-05-19T19:52:59.128Z,87.92
2023-05-19T19:56:01.573Z,87.70
2023-05-19T19:58:50.898Z,87.97
2023-05-19T20:01:41.932Z,88.14
2023-05-19T20:04:30.591Z,88.46
2023-05-19T20:07:20.808Z,88.04
2023-05-19T20:10:09.858Z,88.11
2023-05-19T20:12:59.329Z,88.35
2023-05-19T20:15:48.055Z,88.35
2023-05-19T20:18:36.655Z,88.71
2023-05-19T20:21:25.249Z,88.26
2023-05-19T20:24:13.973Z,88.24
2023-05-19T20:27:02.597Z,88.43
2023-05-19T20:29:51.176Z,88.54
2023-05-19T20:32:40.158Z,88.34
2023-05-19T20:35:28.728Z,88.41
2023-05-19T20:38:17.227Z,88.45
2023-05-19T20:41:05.858Z,88.68
2023-05-19T20:43:55.086Z,88.89
2023-05-19T20:46:43.627Z,88.71
2023-05-19T20:49:32.262Z,88.62
2023-05-19T20:52:21.022Z,88.75
2023-05-19T20:55:10.189Z,88.92
2023-05-19T20:57:58.745Z,89.11
2023-05-19T21:00:48.782Z,89.38
2023-05-19T21:03:37.337Z,89.62
2023-05-19T21:06:26.036Z,89.76
2023-05-19T21:09:14.847Z,89.86
2023-05-19T21:12:03.689Z,89.81
2023-05-19T21:14:53.544Z,90.01
2023-05-19T21:17:42.131Z,90.38
2023-05-19T21:20:30.844Z,90.47
2023-05-19T21:23:19.486Z,90.13
2023-05-19T21:26:08.032Z,90.39
2023-05-19T21:28:56.612Z,90.63
2023-05-19T21:31:45.163Z,90.71
2023-05-19T21:34:33.806Z,90.40
2023-05-19T21:37:22.398Z,90.62
2023-05-19T21:40:11.699Z,90.44
2023-05-19T21:43:00.270Z,90.41
2023-05-19T21:45:48.809Z,91.01
2023-05-19T21:48:37.574Z,91.23
2023-05-19T21:51:26.097Z,90.90
2023-05-19T21:54:14.675Z,90.85
2023-05-19T21:57:03.484Z,90.68
2023-05-19T21:59:52.039Z,90.78
2023-05-19T22:02:40.746Z,90.87
2023-05-19T22:05:30.609Z,90.51
2023-05-19T22:08:20.674Z,90.65
2023-05-19T22:11:09.516Z,90.52
2023-05-19T22:13:58.295Z,90.62
2023-05-19T22:16:47.679Z,90.86
2023-05-19T22:19:36.326Z,90.85
2023-05-19T22:22:24.896Z,90.55
2023-05-19T22:25:13.421Z,90.47
2023-05-19T22:28:02.079Z,90.71
2023-05-19T22:30:50.710Z,91.16
2023-05-19T22:33:39.209Z,91.35
2023-05-19T22:36:27.756Z,91.25
2023-05-19T22:39:16.587Z,90.84
2023-05-19T22:42:05.456Z,90.91
2023-05-19T22:44:53.980Z,90.97
2023-05-19T22:47:42.719Z,90.95
2023-05-19T22:50:31.498Z,91.18
2023-05-19T22:53:20.004Z,91.38
2023-05-19T22:56:08.955Z,91.39
2023-05-19T22:58:57.478Z,91.65
2023-05-19T23:01:46.785Z,91.98
2023-05-19T23:04:36.354Z,91.94
2023-05-19T23:07:25.048Z,91.66
2023-05-19T23:10:13.629Z,91.82
2023-05-19T23:13:02.377Z,91.82
2023-05-19T23:15:50.983Z,91.96
2023-05-19T23:18:39.603Z,91.90
2023-05-19T23:21:30.411Z,91.78
2023-05-19T23:24:19.911Z,91.72
2023-05-19T23:27:08.682Z,92.07
2023-05-19T23:29:57.257Z,92.18
2023-05-19T23:32:45.861Z,92.30
2023-05-19T23:35:34.720Z,92.05
2023-05-19T23:38:23.534Z,92.00
2023-05-19T23:41:12.272Z,92.12
2023-05-19T23:44:00.855Z,92.50
2023-05-19T23:46:49.392Z,92.51
2023-05-19T23:49:37.966Z,92.82
2023-05-19T23:52:26.849Z,92.37
2023-05-19T23:55:15.628Z,92.76
2023-05-19T23:58:04.285Z,93.00
